Time;durP1;ratioP1;P1;durP2;ratioP2;P2;SDS_P1;SDS_P2;PMS_P1;PMS_P2;Temp;Humidity;BMP_temperature;BMP_pressure;BME280_temperature;BME280_humidity;BME280_pressure;Samples;Min_cycle;Max_cycle;Signal;HPM_P1;HPM_P2
2023/06/20 00:00:47;;;;;;;23.05;14.65;;;17.40;99.90;;;;;;4879979;29;20059;-85
2023/06/20 00:03:14;;;;;;;20.05;14.10;;;17.40;99.90;;;;;;4896483;29;20409;-85
2023/06/20 00:05:40;;;;;;;20.70;14.43;;;17.40;99.90;;;;;;4880371;29;20394;-85
2023/06/20 00:08:05;;;;;;;17.95;13.45;;;17.40;99.90;;;;;;4895886;29;20083;-86
2023/06/20 00:10:31;;;;;;;17.65;12.55;;;17.40;99.90;;;;;;4884503;29;20103;-86
2023/06/20 00:12:57;;;;;;;24.85;13.23;;;17.40;99.90;;;;;;4887881;29;20379;-85
2023/06/20 00:15:25;;;;;;;15.27;12.63;;;17.30;99.90;;;;;;4896030;29;20111;-85
2023/06/20 00:17:53;;;;;;;16.27;12.55;;;17.30;99.90;;;;;;4881243;29;20052;-85
2023/06/20 00:20:19;;;;;;;19.02;13.48;;;17.30;99.90;;;;;;4878062;29;20052;-85
2023/06/20 00:22:44;;;;;;;19.73;13.52;;;17.30;99.90;;;;;;4889147;29;20044;-86
2023/06/20 00:25:10;;;;;;;22.63;13.90;;;17.20;99.90;;;;;;4880704;29;20084;-86
2023/06/20 00:27:36;;;;;;;22.13;14.73;;;17.20;99.90;;;;;;4880829;29;20048;-86
2023/06/20 00:30:02;;;;;;;23.25;14.57;;;17.10;99.90;;;;;;4886281;29;20086;-86
2023/06/20 00:32:28;;;;;;;20.90;14.02;;;17.10;99.90;;;;;;4885192;29;20052;-86
2023/06/20 00:34:54;;;;;;;20.17;13.77;;;17.00;99.90;;;;;;4896345;29;20060;-86
2023/06/20 00:37:20;;;;;;;21.48;14.82;;;17.10;99.90;;;;;;4880300;29;20071;-86
2023/06/20 00:39:46;;;;;;;22.40;14.38;;;17.10;99.90;;;;;;4886299;29;20512;-85
2023/06/20 00:42:19;;;;;;;21.02;14.50;;;17.10;99.90;;;;;;4886969;29;20059;-86
2023/06/20 00:44:46;;;;;;;20.15;13.88;;;17.10;99.90;;;;;;4882932;29;20036;-86
2023/06/20 00:47:14;;;;;;;20.65;13.98;;;17.10;99.90;;;;;;4908699;29;20092;-85
2023/06/20 00:49:41;;;;;;;19.52;13.25;;;17.10;99.90;;;;;;4879373;29;20047;-85
2023/06/20 00:52:07;;;;;;;20.15;14.02;;;17.10;99.90;;;;;;4895962;29;20071;-86
2023/06/20 00:54:34;;;;;;;21.52;13.65;;;17.10;99.90;;;;;;4895029;29;20048;-85
2023/06/20 00:57:00;;;;;;;18.25;13.07;;;17.10;99.90;;;;;;4879896;29;20083;-85
2023/06/20 00:59:26;;;;;;;23.40;14.27;;;17.10;99.90;;;;;;4886086;29;20044;-86
2023/06/20 01:01:53;;;;;;;23.00;13.98;;;17.10;99.90;;;;;;4879475;29;20052;-86
2023/06/20 01:04:20;;;;;;;21.05;13.55;;;17.10;99.90;;;;;;4895932;29;20048;-86
2023/06/20 01:06:59;;;;;;;19.90;13.27;;;17.10;99.90;;;;;;4894966;29;20048;-86
2023/06/20 01:09:33;;;;;;;16.13;11.98;;;17.10;99.90;;;;;;4879591;29;20062;-86
2023/06/20 01:12:07;;;;;;;15.70;11.48;;;17.10;99.90;;;;;;4879572;29;20459;-87
2023/06/20 01:14:33;;;;;;;23.60;12.70;;;17.10;99.90;;;;;;4880292;29;20044;-86
2023/06/20 01:17:05;;;;;;;18.63;11.73;;;17.10;99.90;;;;;;4896049;29;20467;-86
2023/06/20 01:19:47;;;;;;;19.17;12.07;;;17.10;99.90;;;;;;4895296;29;20515;-86
2023/06/20 01:22:45;;;;;;;17.90;11.88;;;17.10;99.90;;;;;;4870413;29;20099;-86
2023/06/20 01:25:24;;;;;;;15.77;10.98;;;17.00;99.90;;;;;;4892061;29;20052;-86
2023/06/20 01:28:03;;;;;;;18.60;11.50;;;17.00;99.90;;;;;;4880889;29;20345;-86
2023/06/20 01:30:39;;;;;;;15.88;9.35;;;17.00;99.90;;;;;;4905284;29;20056;-86
2023/06/20 01:33:08;;;;;;;17.27;10.57;;;17.00;99.90;;;;;;4892898;29;20047;-85
2023/06/20 01:35:35;;;;;;;13.98;10.40;;;16.90;99.90;;;;;;4895120;29;20114;-86
2023/06/20 01:38:07;;;;;;;13.27;9.75;;;16.90;99.90;;;;;;4879406;29;20055;-85
2023/06/20 01:40:35;;;;;;;13.63;9.20;;;16.90;99.90;;;;;;4877751;29;20063;-85
2023/06/20 01:43:04;;;;;;;15.65;10.43;;;16.80;99.90;;;;;;4894787;29;20564;-86
2023/06/20 01:45:35;;;;;;;14.73;9.70;;;16.80;99.90;;;;;;4907060;29;20123;-86
2023/06/20 01:48:03;;;;;;;15.88;9.80;;;16.70;99.90;;;;;;4894579;29;20048;-85
2023/06/20 01:50:31;;;;;;;17.30;11.27;;;16.70;99.90;;;;;;4894691;29;20091;-87
2023/06/20 01:53:00;;;;;;;14.05;10.07;;;16.70;99.90;;;;;;4879950;29;20036;-85
2023/06/20 01:55:28;;;;;;;15.48;9.95;;;16.70;99.90;;;;;;4892714;29;20074;-85
2023/06/20 01:57:57;;;;;;;14.63;9.45;;;16.70;99.90;;;;;;4879436;29;20494;-86
2023/06/20 02:00:26;;;;;;;18.05;10.18;;;16.70;99.90;;;;;;4894242;29;20473;-87
2023/06/20 02:02:56;;;;;;;14.88;9.90;;;16.70;99.90;;;;;;4879074;29;20146;-86
2023/06/20 02:05:23;;;;;;;14.85;10.20;;;16.70;99.90;;;;;;4878655;29;20040;-86
2023/06/20 02:07:51;;;;;;;15.85;9.77;;;16.70;99.90;;;;;;4879157;29;20048;-86
2023/06/20 02:10:19;;;;;;;15.52;9.75;;;16.70;99.90;;;;;;4878068;29;20040;-86
2023/06/20 02:12:49;;;;;;;13.23;10.10;;;16.70;99.90;;;;;;4879602;29;20115;-85
2023/06/20 02:15:16;;;;;;;17.67;10.35;;;16.70;99.90;;;;;;4894098;29;20040;-85
2023/06/20 02:17:44;;;;;;;15.27;10.15;;;16.70;99.90;;;;;;4879161;29;20102;-86
2023/06/20 02:20:10;;;;;;;16.42;10.93;;;16.60;99.90;;;;;;4878851;29;20472;-86
2023/06/20 02:22:37;;;;;;;17.98;12.07;;;16.60;99.90;;;;;;4894172;29;20055;-86
2023/06/20 02:25:07;;;;;;;17.48;11.20;;;16.60;99.90;;;;;;4878449;29;20040;-85
2023/06/20 02:27:34;;;;;;;15.65;11.20;;;16.60;99.90;;;;;;4894730;29;20194;-86
2023/06/20 02:30:02;;;;;;;19.05;11.45;;;16.60;99.90;;;;;;4906574;29;20044;-85
2023/06/20 02:32:29;;;;;;;19.90;12.02;;;16.50;99.90;;;;;;4878048;29;20044;-85
2023/06/20 02:34:57;;;;;;;20.88;11.90;;;16.60;99.90;;;;;;4878592;29;20149;-85
2023/06/20 02:37:24;;;;;;;14.82;10.95;;;16.60;99.90;;;;;;4877394;29;20192;-85
2023/06/20 02:39:50;;;;;;;16.08;11.23;;;16.60;99.90;;;;;;4877668;29;20043;-85
2023/06/20 02:42:17;;;;;;;15.88;11.27;;;16.60;99.90;;;;;;4878573;29;20092;-85
2023/06/20 02:44:43;;;;;;;17.92;11.52;;;16.50;99.90;;;;;;4865311;29;20040;-85
2023/06/20 02:47:35;;;;;;;17.52;11.80;;;16.50;99.90;;;;;;4878339;29;20047;-85
2023/06/20 02:50:10;;;;;;;14.75;11.52;;;16.60;99.90;;;;;;4884350;29;20051;-85
2023/06/20 02:52:41;;;;;;;17.10;12.15;;;16.60;99.90;;;;;;4878285;29;20044;-85
2023/06/20 02:55:26;;;;;;;16.67;11.38;;;16.60;99.90;;;;;;4893452;29;20566;-85
2023/06/20 02:57:55;;;;;;;16.48;11.75;;;16.60;99.90;;;;;;4864279;29;20053;-86
2023/06/20 03:00:22;;;;;;;17.83;11.35;;;16.60;99.90;;;;;;4889895;29;20052;-85
2023/06/20 03:02:53;;;;;;;21.77;12.88;;;16.60;99.90;;;;;;4894080;29;20404;-86
2023/06/20 03:05:22;;;;;;;15.55;12.35;;;16.60;99.90;;;;;;4877470;29;20416;-86
2023/06/20 03:07:49;;;;;;;18.23;12.82;;;16.60;99.90;;;;;;4878377;29;20143;-85
2023/06/20 03:10:15;;;;;;;17.23;12.10;;;16.60;99.90;;;;;;4877208;29;20060;-85
2023/06/20 03:12:41;;;;;;;20.15;13.75;;;16.70;99.90;;;;;;4868310;29;20052;-85
2023/06/20 03:15:07;;;;;;;22.75;13.55;;;16.70;99.90;;;;;;4890059;29;20048;-86
2023/06/20 03:17:35;;;;;;;19.30;12.57;;;16.70;99.90;;;;;;4878406;29;20043;-85
2023/06/20 03:20:04;;;;;;;22.05;13.30;;;16.70;99.90;;;;;;4892866;29;20072;-86
2023/06/20 03:22:30;;;;;;;19.40;12.63;;;16.70;99.90;;;;;;4878688;29;20044;-85
2023/06/20 03:24:55;;;;;;;19.33;12.85;;;16.70;99.90;;;;;;4892845;29;20452;-85
2023/06/20 03:27:21;;;;;;;22.52;13.27;;;16.70;99.90;;;;;;4892969;29;20052;-85
2023/06/20 03:29:46;;;;;;;22.45;13.50;;;16.70;99.90;;;;;;4893461;29;20072;-85
2023/06/20 03:32:12;;;;;;;20.17;13.52;;;16.70;99.90;;;;;;4877553;29;20063;-85
2023/06/20 03:34:38;;;;;;;22.98;13.38;;;16.70;99.90;;;;;;4877941;29;20344;-86
2023/06/20 03:37:04;;;;;;;18.60;12.32;;;16.70;99.90;;;;;;4878478;29;20110;-84
2023/06/20 03:39:29;;;;;;;19.70;12.30;;;16.80;99.90;;;;;;4891403;29;20441;-85
2023/06/20 03:41:55;;;;;;;18.45;13.35;;;16.80;99.90;;;;;;4878418;29;20044;-85
2023/06/20 03:44:21;;;;;;;20.17;13.90;;;16.80;99.90;;;;;;4868741;29;20052;-85
2023/06/20 03:46:46;;;;;;;18.33;12.93;;;16.80;99.90;;;;;;4896475;29;20048;-85
2023/06/20 03:49:12;;;;;;;16.50;12.60;;;16.80;99.90;;;;;;4881679;29;20098;-85
2023/06/20 03:51:39;;;;;;;21.60;13.48;;;16.80;99.90;;;;;;4881081;29;20051;-85
2023/06/20 03:54:04;;;;;;;18.33;13.88;;;16.90;99.90;;;;;;4880254;29;20130;-85
2023/06/20 03:56:30;;;;;;;23.67;13.90;;;16.90;99.90;;;;;;4881006;29;20466;-86
2023/06/20 03:58:56;;;;;;;18.25;13.98;;;16.90;99.90;;;;;;4881373;29;20619;-85
2023/06/20 04:01:24;;;;;;;21.30;13.85;;;16.90;99.90;;;;;;4877258;29;20061;-85
2023/06/20 04:03:51;;;;;;;17.95;12.75;;;16.90;99.90;;;;;;4905926;29;20044;-85
2023/06/20 04:06:16;;;;;;;19.02;13.40;;;16.90;99.90;;;;;;4878553;29;20064;-85
2023/06/20 04:08:42;;;;;;;21.15;13.60;;;16.90;99.90;;;;;;4876645;29;20388;-84
2023/06/20 04:11:08;;;;;;;19.65;13.75;;;17.00;99.90;;;;;;4876999;29;20408;-85
2023/06/20 04:13:33;;;;;;;17.52;13.40;;;17.00;99.90;;;;;;4893655;29;20044;-84
2023/06/20 04:15:59;;;;;;;18.98;13.95;;;17.00;99.90;;;;;;4877017;29;20063;-85
2023/06/20 04:18:25;;;;;;;20.83;13.73;;;17.10;99.90;;;;;;4893388;29;20112;-85
2023/06/20 04:20:51;;;;;;;19.80;13.38;;;17.10;99.90;;;;;;4877468;29;20055;-85
2023/06/20 04:23:16;;;;;;;19.55;13.02;;;17.20;99.90;;;;;;4877593;29;20041;-85
2023/06/20 04:25:42;;;;;;;23.25;13.68;;;17.30;99.90;;;;;;4876508;29;20487;-85
2023/06/20 04:28:08;;;;;;;18.73;12.75;;;17.30;99.90;;;;;;4877711;29;20139;-85
2023/06/20 04:30:33;;;;;;;21.02;13.23;;;17.40;99.90;;;;;;4876932;29;20046;-85
2023/06/20 04:32:59;;;;;;;18.58;13.77;;;17.40;99.90;;;;;;4877218;29;20052;-85
2023/06/20 04:35:25;;;;;;;22.95;13.95;;;17.50;99.90;;;;;;4877584;29;20052;-84
2023/06/20 04:37:52;;;;;;;18.30;12.40;;;17.50;99.90;;;;;;4892337;29;20516;-85
2023/06/20 04:40:18;;;;;;;19.00;13.25;;;17.60;99.90;;;;;;4886620;29;20040;-86
2023/06/20 04:42:45;;;;;;;16.20;12.88;;;17.70;99.90;;;;;;4875621;29;20108;-85
2023/06/20 04:45:12;;;;;;;18.60;13.43;;;17.70;99.90;;;;;;4868646;29;20702;-85
2023/06/20 04:47:38;;;;;;;17.42;13.60;;;17.80;99.90;;;;;;4905506;29;20067;-85
2023/06/20 04:50:04;;;;;;;21.00;13.07;;;17.90;99.90;;;;;;4876633;29;20465;-86
2023/06/20 04:52:30;;;;;;;21.95;13.57;;;17.90;99.90;;;;;;4865134;29;20047;-85
2023/06/20 04:55:02;;;;;;;18.33;13.18;;;18.00;99.90;;;;;;4875213;29;20139;-85
2023/06/20 04:57:30;;;;;;;20.40;13.80;;;18.10;99.90;;;;;;4894282;29;20044;-85
2023/06/20 04:59:56;;;;;;;18.02;14.05;;;18.10;99.90;;;;;;4872857;29;20045;-85
2023/06/20 05:02:22;;;;;;;18.08;13.18;;;18.20;99.90;;;;;;4895901;29;20123;-85
2023/06/20 05:04:48;;;;;;;22.48;14.23;;;18.20;99.90;;;;;;4879870;29;20107;-85
2023/06/20 05:07:14;;;;;;;17.33;13.65;;;18.20;99.90;;;;;;4893880;29;20460;-85
2023/06/20 05:09:39;;;;;;;16.42;12.65;;;18.20;99.90;;;;;;4874995;29;20062;-85
2023/06/20 05:12:05;;;;;;;18.65;12.73;;;18.20;99.90;;;;;;4878931;29;20118;-85
2023/06/20 05:14:31;;;;;;;17.13;12.73;;;18.20;99.90;;;;;;4878565;29;20044;-84
2023/06/20 05:16:57;;;;;;;17.45;13.02;;;18.20;99.90;;;;;;4905475;29;20116;-85
2023/06/20 05:19:23;;;;;;;14.25;12.27;;;18.20;99.90;;;;;;4902678;29;20060;-87
2023/06/20 05:21:48;;;;;;;21.30;13.25;;;18.20;99.90;;;;;;4878504;29;20386;-87
2023/06/20 05:24:14;;;;;;;19.05;11.90;;;18.20;99.90;;;;;;4880883;29;20059;-87
2023/06/20 05:26:40;;;;;;;16.73;12.35;;;18.20;99.90;;;;;;4879290;29;20548;-86
2023/06/20 05:29:09;;;;;;;15.43;12.38;;;18.20;99.90;;;;;;4882200;29;20048;-86
2023/06/20 05:31:41;;;;;;;16.83;11.65;;;18.20;99.90;;;;;;4882872;29;20067;-86
2023/06/20 05:34:07;;;;;;;18.77;12.25;;;18.20;99.90;;;;;;4901309;29;20126;-87
2023/06/20 05:36:33;;;;;;;17.33;11.73;;;18.30;99.90;;;;;;4875069;29;20050;-87
2023/06/20 05:38:59;;;;;;;18.48;11.98;;;18.30;99.90;;;;;;4887098;29;20055;-86
2023/06/20 05:41:25;;;;;;;15.90;11.30;;;18.30;99.90;;;;;;4878957;29;20047;-87
2023/06/20 05:43:51;;;;;;;15.98;10.70;;;18.30;99.90;;;;;;4868304;29;20088;-86
2023/06/20 05:46:17;;;;;;;15.52;10.70;;;18.40;99.90;;;;;;4913400;29;20090;-89
2023/06/20 05:48:59;;;;;;;14.95;10.73;;;18.40;99.90;;;;;;4900882;29;20127;-89
2023/06/20 05:51:29;;;;;;;21.30;11.48;;;18.40;99.90;;;;;;4890733;29;20067;-88
2023/06/20 05:53:57;;;;;;;17.70;10.80;;;18.50;99.90;;;;;;4877903;29;20485;-89
2023/06/20 05:56:32;;;;;;;19.67;11.00;;;18.40;99.90;;;;;;4894905;29;20039;-87
2023/06/20 05:59:00;;;;;;;16.65;11.43;;;18.50;99.90;;;;;;4873672;29;20248;-86
2023/06/20 06:01:32;;;;;;;17.95;10.98;;;18.60;99.90;;;;;;4892999;29;20048;-86
2023/06/20 06:03:58;;;;;;;17.60;11.55;;;18.60;99.90;;;;;;4903722;29;20064;-86
2023/06/20 06:06:33;;;;;;;21.08;11.55;;;18.60;99.90;;;;;;4878566;29;20099;-85
2023/06/20 06:08:59;;;;;;;20.17;12.27;;;18.70;99.90;;;;;;4878258;29;20472;-87
2023/06/20 06:11:26;;;;;;;21.38;12.07;;;18.70;99.90;;;;;;4879554;29;20464;-86
2023/06/20 06:13:51;;;;;;;16.08;12.45;;;18.70;99.90;;;;;;4878754;29;20091;-86
2023/06/20 06:16:18;;;;;;;18.52;10.57;;;18.70;99.90;;;;;;4878911;29;20080;-87
2023/06/20 06:18:44;;;;;;;17.23;12.70;;;18.80;99.90;;;;;;4886671;29;20058;-87
2023/06/20 06:21:16;;;;;;;17.65;12.07;;;18.90;99.90;;;;;;4873746;29;20048;-88
2023/06/20 06:23:41;;;;;;;16.05;12.07;;;18.90;99.90;;;;;;4865917;29;20040;-87
2023/06/20 06:26:07;;;;;;;22.85;12.63;;;19.00;99.90;;;;;;4869587;29;20052;-87
2023/06/20 06:28:33;;;;;;;15.02;12.15;;;19.10;99.90;;;;;;4870411;29;20044;-86
2023/06/20 06:30:59;;;;;;;18.92;12.05;;;19.10;99.90;;;;;;4872502;29;20052;-87
2023/06/20 06:33:27;;;;;;;16.15;12.27;;;19.10;99.90;;;;;;4874022;29;20047;-86
2023/06/20 06:35:55;;;;;;;18.33;12.38;;;19.30;99.90;;;;;;4877999;29;20067;-86
2023/06/20 06:38:22;;;;;;;18.17;12.40;;;19.30;99.90;;;;;;4864374;29;20107;-87
2023/06/20 06:40:47;;;;;;;17.25;11.85;;;19.40;99.90;;;;;;4872301;29;20047;-87
2023/06/20 06:43:14;;;;;;;15.15;12.45;;;19.50;99.90;;;;;;4871649;29;20049;-87
2023/06/20 06:45:40;;;;;;;18.17;12.57;;;19.60;99.90;;;;;;4873945;29;20051;-87
2023/06/20 06:48:06;;;;;;;15.90;11.63;;;19.60;99.90;;;;;;4895235;29;20051;-87
2023/06/20 06:50:32;;;;;;;19.33;11.63;;;19.70;99.90;;;;;;4878568;29;20048;-87
2023/06/20 06:52:58;;;;;;;24.52;12.15;;;19.80;99.90;;;;;;4879820;29;20051;-87
2023/06/20 06:55:23;;;;;;;21.13;12.48;;;19.90;99.90;;;;;;4893317;29;20040;-86
2023/06/20 06:57:49;;;;;;;14.73;10.93;;;20.00;99.90;;;;;;4892382;29;20745;-86
2023/06/20 07:00:16;;;;;;;17.95;11.55;;;20.10;99.90;;;;;;4878454;29;20508;-85
2023/06/20 07:02:43;;;;;;;16.15;11.75;;;20.20;99.90;;;;;;4886534;29;20560;-86
2023/06/20 07:05:09;;;;;;;15.35;11.00;;;20.20;99.90;;;;;;4885569;29;20048;-87
2023/06/20 07:07:35;;;;;;;17.63;10.75;;;20.30;99.90;;;;;;4879281;29;20392;-87
2023/06/20 07:10:01;;;;;;;14.70;11.05;;;20.40;99.90;;;;;;4882182;29;20560;-86
2023/06/20 07:12:36;;;;;;;17.40;10.38;;;20.50;99.90;;;;;;4893287;29;20096;-86
2023/06/20 07:15:02;;;;;;;14.60;9.90;;;20.70;99.90;;;;;;4878749;29;20496;-87
2023/06/20 07:17:31;;;;;;;15.25;9.52;;;20.80;99.90;;;;;;4879427;29;20048;-86
2023/06/20 07:19:56;;;;;;;13.05;9.35;;;20.90;99.90;;;;;;4898190;29;20040;-87
2023/06/20 07:22:22;;;;;;;13.80;10.10;;;21.00;99.90;;;;;;4882937;29;20151;-86
2023/06/20 07:24:51;;;;;;;17.10;9.80;;;21.10;99.90;;;;;;4882477;29;20409;-87
2023/06/20 07:27:17;;;;;;;15.50;10.05;;;21.20;99.90;;;;;;4874425;29;20088;-87
2023/06/20 07:29:42;;;;;;;13.30;8.93;;;21.40;99.90;;;;;;4887540;29;20608;-88
2023/06/20 07:32:08;;;;;;;14.98;10.30;;;21.50;99.90;;;;;;4881493;29;20056;-87
2023/06/20 07:34:40;;;;;;;14.40;10.77;;;21.60;99.90;;;;;;4898069;29;20107;-87
2023/06/20 07:37:06;;;;;;;13.07;10.15;;;21.70;99.90;;;;;;4886543;29;20041;-87
2023/06/20 07:39:39;;;;;;;13.77;9.30;;;21.80;99.90;;;;;;4875308;29;20044;-87
2023/06/20 07:42:05;;;;;;;13.52;9.57;;;21.90;99.90;;;;;;4877155;29;20468;-87
2023/06/20 07:44:30;;;;;;;15.35;9.55;;;22.00;99.90;;;;;;4869643;29;20048;-87
2023/06/20 07:46:56;;;;;;;13.65;9.05;;;22.00;99.90;;;;;;4897656;29;20055;-87
2023/06/20 07:49:21;;;;;;;14.82;8.65;;;22.10;99.90;;;;;;4881176;29;20131;-86
2023/06/20 07:51:47;;;;;;;12.32;8.77;;;22.20;99.90;;;;;;4897875;29;20063;-87
2023/06/20 07:54:14;;;;;;;14.07;9.45;;;22.30;99.90;;;;;;4880224;29;20040;-87
2023/06/20 07:56:40;;;;;;;17.33;10.52;;;22.40;99.90;;;;;;4871139;29;20084;-87
2023/06/20 07:59:06;;;;;;;13.68;8.63;;;22.50;99.90;;;;;;4872143;29;20080;-87
2023/06/20 08:01:31;;;;;;;13.93;9.93;;;22.60;99.90;;;;;;4881050;29;20074;-87
2023/06/20 08:03:57;;;;;;;11.88;9.80;;;22.70;99.90;;;;;;4882015;29;20056;-87
2023/06/20 08:06:23;;;;;;;13.38;8.68;;;22.80;99.90;;;;;;4897255;29;20044;-87
2023/06/20 08:08:49;;;;;;;12.40;8.63;;;22.90;99.90;;;;;;4881283;29;20044;-87
2023/06/20 08:11:21;;;;;;;12.68;8.73;;;23.00;99.90;;;;;;4897066;29;20098;-87
2023/06/20 08:13:47;;;;;;;15.02;8.43;;;23.10;99.90;;;;;;4897193;29;20048;-87
2023/06/20 08:16:13;;;;;;;11.23;8.18;;;23.20;99.90;;;;;;4882358;29;20051;-87
2023/06/20 08:18:38;;;;;;;14.07;8.52;;;23.30;99.90;;;;;;4881958;29;20220;-87
2023/06/20 08:21:04;;;;;;;11.48;8.63;;;23.30;99.90;;;;;;4893512;29;20047;-87
2023/06/20 08:23:30;;;;;;;12.23;8.95;;;23.40;99.90;;;;;;4881640;29;20493;-87
2023/06/20 08:25:56;;;;;;;18.00;8.40;;;23.50;99.90;;;;;;4881067;29;20056;-87
2023/06/20 08:28:24;;;;;;;13.38;9.60;;;23.60;99.90;;;;;;4896529;29;20067;-88
2023/06/20 08:30:50;;;;;;;15.05;10.25;;;23.70;99.90;;;;;;4896573;29;20068;-87
2023/06/20 08:33:17;;;;;;;16.92;9.82;;;23.80;99.90;;;;;;4897476;29;20419;-87
2023/06/20 08:35:43;;;;;;;15.23;10.13;;;23.80;99.90;;;;;;4892208;29;20040;-86
2023/06/20 08:38:09;;;;;;;15.25;9.43;;;23.80;99.90;;;;;;4897429;29;20044;-87
2023/06/20 08:40:35;;;;;;;11.75;8.75;;;23.80;99.90;;;;;;4880565;29;20137;-87
2023/06/20 08:43:01;;;;;;;13.27;9.30;;;23.80;99.90;;;;;;4874840;29;20485;-87
2023/06/20 08:45:27;;;;;;;11.52;9.55;;;23.80;99.90;;;;;;4875128;29;20032;-87
2023/06/20 08:48:03;;;;;;;12.48;9.55;;;23.80;99.90;;;;;;4881480;29;20503;-87
2023/06/20 08:50:29;;;;;;;15.32;9.63;;;23.80;99.90;;;;;;4892880;29;20103;-87
2023/06/20 08:53:01;;;;;;;12.18;8.93;;;23.80;99.90;;;;;;4893561;29;20047;-87
2023/06/20 08:55:28;;;;;;;13.67;9.63;;;23.80;99.90;;;;;;4895770;29;20080;-87
2023/06/20 08:58:00;;;;;;;18.17;8.90;;;23.80;99.90;;;;;;4892307;29;20041;-88
2023/06/20 09:00:26;;;;;;;17.45;8.05;;;23.80;99.90;;;;;;4881268;29;20088;-87
2023/06/20 09:03:01;;;;;;;15.43;9.27;;;23.80;99.90;;;;;;4887500;29;20088;-87
2023/06/20 09:05:31;;;;;;;16.88;9.07;;;23.70;99.90;;;;;;4893479;29;20048;-87
2023/06/20 09:08:00;;;;;;;11.85;8.98;;;23.70;99.90;;;;;;4889091;29;20562;-87
2023/06/20 09:10:39;;;;;;;13.18;9.30;;;23.80;99.90;;;;;;4877967;29;20096;-87
2023/06/20 09:13:06;;;;;;;14.45;9.73;;;24.00;99.90;;;;;;4878124;29;20061;-87
2023/06/20 09:15:34;;;;;;;14.15;8.70;;;24.20;99.90;;;;;;4877632;29;20112;-87
2023/06/20 09:18:22;;;;;;;12.43;10.48;;;24.40;99.90;;;;;;4876859;29;20117;-87
2023/06/20 09:20:47;;;;;;;15.38;9.10;;;24.50;99.90;;;;;;4883571;29;20080;-88
2023/06/20 09:23:27;;;;;;;13.45;9.18;;;24.60;99.90;;;;;;4878153;29;20076;-87
2023/06/20 09:25:54;;;;;;;11.50;8.90;;;24.80;99.90;;;;;;4877281;29;20127;-87
2023/06/20 09:28:23;;;;;;;12.07;9.00;;;24.90;99.90;;;;;;4878119;29;20089;-87
2023/06/20 09:30:49;;;;;;;15.57;8.82;;;25.00;99.90;;;;;;4877413;29;20057;-87
2023/06/20 09:33:16;;;;;;;16.92;9.07;;;25.10;99.90;;;;;;4877192;29;20497;-87
2023/06/20 09:36:16;;;;;;;10.27;8.55;;;25.10;99.90;;;;;;4892093;29;20124;-88
2023/06/20 09:38:56;;;;;;;17.15;8.88;;;25.30;99.90;;;;;;4892048;29;20123;-87
2023/06/20 09:41:22;;;;;;;22.67;9.05;;;25.40;99.90;;;;;;4876526;29;20095;-87
2023/06/20 09:44:03;;;;;;;12.27;8.43;;;25.40;99.90;;;;;;4865971;29;20041;-87
2023/06/20 09:46:29;;;;;;;13.82;8.70;;;25.50;99.90;;;;;;4865999;29;20139;-87
2023/06/20 09:48:55;;;;;;;12.57;8.45;;;25.60;99.90;;;;;;4893085;29;20135;-87
2023/06/20 09:51:21;;;;;;;13.43;7.50;;;25.70;99.90;;;;;;4892827;29;20489;-87
2023/06/20 09:53:57;;;;;;;10.40;7.28;;;25.70;99.90;;;;;;4874962;29;20135;-87
2023/06/20 09:56:37;;;;;;;14.05;7.75;;;25.70;99.90;;;;;;4884165;29;20100;-87
2023/06/20 09:59:26;;;;;;;17.98;8.27;;;25.70;99.90;;;;;;4896453;29;20058;-88
2023/06/20 10:02:07;;;;;;;17.05;7.43;;;25.70;99.90;;;;;;4909542;29;20119;-87
2023/06/20 10:04:43;;;;;;;10.20;7.15;;;25.60;99.90;;;;;;4872578;29;20048;-87
2023/06/20 10:07:22;;;;;;;15.98;8.20;;;25.90;99.90;;;;;;4892030;29;20374;-87
2023/06/20 10:09:51;;;;;;;10.95;8.75;;;25.80;99.90;;;;;;4880973;29;20104;-87
2023/06/20 10:12:17;;;;;;;13.10;8.90;;;25.80;99.90;;;;;;4885390;29;20048;-87
2023/06/20 10:14:43;;;;;;;16.83;8.55;;;25.80;99.90;;;;;;4875281;29;20040;-88
2023/06/20 10:17:11;;;;;;;13.73;9.35;;;25.90;99.90;;;;;;4883801;29;20071;-88
2023/06/20 10:19:52;;;;;;;15.40;9.13;;;26.10;99.90;;;;;;4877868;29;20078;-89
2023/06/20 10:22:48;;;;;;;15.75;8.00;;;26.20;99.90;;;;;;4895793;29;20367;-88
2023/06/20 10:25:18;;;;;;;12.13;7.38;;;26.20;99.90;;;;;;4875618;29;20055;-88
2023/06/20 10:28:07;;;;;;;10.60;7.43;;;26.40;99.90;;;;;;4879137;29;20173;-88
2023/06/20 10:31:15;;;;;;;9.30;6.43;;;26.70;99.90;;;;;;4899880;29;20101;-87
2023/06/20 10:33:45;;;;;;;12.48;5.47;;;26.90;99.90;;;;;;4881683;29;20052;-87
2023/06/20 10:36:12;;;;;;;12.02;5.90;;;27.10;99.90;;;;;;4877800;29;20108;-89
2023/06/20 10:39:07;;;;;;;11.00;6.55;;;27.30;99.90;;;;;;4889014;29;20174;-87
2023/06/20 10:41:33;;;;;;;7.43;5.47;;;27.40;99.90;;;;;;4869392;29;20548;-87
2023/06/20 10:44:03;;;;;;;8.25;5.63;;;27.50;99.90;;;;;;4888382;29;20084;-88
2023/06/20 10:46:53;;;;;;;9.70;5.28;;;27.60;99.90;;;;;;4878223;29;20429;-88
2023/06/20 10:49:21;;;;;;;18.00;5.90;;;27.70;99.90;;;;;;4887688;29;20049;-88
2023/06/20 10:51:50;;;;;;;8.73;5.32;;;27.70;99.90;;;;;;4871390;29;20055;-88
2023/06/20 10:54:18;;;;;;;9.82;6.63;;;27.70;99.90;;;;;;4877086;29;20052;-88
2023/06/20 10:56:46;;;;;;;9.80;6.40;;;27.80;99.90;;;;;;4888513;29;20044;-87
2023/06/20 10:59:14;;;;;;;13.32;6.65;;;27.80;99.90;;;;;;4887531;29;20079;-89
2023/06/20 11:01:40;;;;;;;9.55;6.13;;;27.90;99.90;;;;;;4871966;29;20100;-87
2023/06/20 11:04:09;;;;;;;8.45;5.93;;;28.00;99.90;;;;;;4865541;29;20087;-88
2023/06/20 11:06:50;;;;;;;9.27;5.97;;;28.00;99.90;;;;;;4893999;29;20127;-88
2023/06/20 11:09:24;;;;;;;10.15;5.90;;;28.00;99.90;;;;;;4893157;29;20135;-89
2023/06/20 11:12:19;;;;;;;11.00;6.28;;;28.10;99.90;;;;;;4878171;29;20045;-88
2023/06/20 11:14:45;;;;;;;6.93;5.25;;;28.20;99.90;;;;;;4852259;29;20075;-87
2023/06/20 11:17:30;;;;;;;9.15;5.97;;;28.30;99.90;;;;;;4870469;29;20479;-89
2023/06/20 11:19:59;;;;;;;6.53;4.50;;;28.40;99.90;;;;;;4880377;29;20485;-87
2023/06/20 11:22:25;;;;;;;7.65;4.85;;;28.50;99.90;;;;;;4883440;29;20067;-87
2023/06/20 11:24:51;;;;;;;5.82;4.22;;;28.60;99.90;;;;;;4858333;29;20514;-88
2023/06/20 11:27:19;;;;;;;8.82;4.07;;;28.80;99.90;;;;;;4874150;29;20057;-86
2023/06/20 11:29:45;;;;;;;8.35;4.43;;;28.80;99.90;;;;;;4886996;29;20049;-88
2023/06/20 11:32:21;;;;;;;5.65;4.50;;;28.70;99.90;;;;;;4883070;29;20045;-88
2023/06/20 11:35:09;;;;;;;8.60;5.63;;;28.80;99.90;;;;;;4871360;29;20049;-88
2023/06/20 11:37:54;;;;;;;6.95;5.95;;;28.90;99.90;;;;;;4861076;29;20135;-87
2023/06/20 11:40:22;;;;;;;7.32;5.03;;;28.90;99.90;;;;;;4873986;29;20056;-86
2023/06/20 11:42:48;;;;;;;8.35;4.85;;;28.90;99.90;;;;;;4884275;29;20045;-88
2023/06/20 11:46:10;;;;;;;7.95;5.13;;;28.90;99.90;;;;;;4858514;29;20220;-88
2023/06/20 11:48:48;;;;;;;10.57;5.28;;;29.20;99.90;;;;;;4874213;29;20049;-88
2023/06/20 11:51:23;;;;;;;8.57;4.90;;;29.10;99.90;;;;;;4866544;29;20090;-89
2023/06/20 11:54:12;;;;;;;9.48;5.40;;;29.10;99.90;;;;;;4876251;29;20121;-88
2023/06/20 11:56:41;;;;;;;13.75;5.65;;;29.10;99.90;;;;;;4887636;29;20052;-89
2023/06/20 11:59:10;;;;;;;10.07;5.75;;;29.10;99.90;;;;;;4880578;29;20409;-88
2023/06/20 12:01:45;;;;;;;9.20;5.25;;;29.10;99.90;;;;;;4876767;29;20512;-89
2023/06/20 12:04:14;;;;;;;9.43;5.47;;;29.00;99.90;;;;;;4875716;29;20067;-88
2023/06/20 12:06:42;;;;;;;8.25;5.55;;;29.00;99.90;;;;;;4863158;29;20501;-89
2023/06/20 12:09:15;;;;;;;8.35;6.07;;;29.00;99.90;;;;;;4880753;29;20056;-89
2023/06/20 12:11:49;;;;;;;8.50;5.78;;;29.00;99.90;;;;;;4883420;29;20040;-88
2023/06/20 12:14:16;;;;;;;7.30;5.47;;;29.00;99.90;;;;;;4890125;29;20057;-88
2023/06/20 12:16:42;;;;;;;10.93;5.35;;;28.90;99.90;;;;;;4895665;29;20115;-88
2023/06/20 12:19:08;;;;;;;9.95;5.05;;;28.90;99.90;;;;;;4905728;29;20080;-88
2023/06/20 12:21:38;;;;;;;6.60;4.65;;;28.90;99.90;;;;;;4890361;29;20084;-88
2023/06/20 12:24:05;;;;;;;10.55;4.90;;;29.00;99.90;;;;;;4882448;29;20051;-89
2023/06/20 12:26:31;;;;;;;9.27;5.00;;;29.10;99.90;;;;;;4891049;29;20140;-88
2023/06/20 12:29:14;;;;;;;9.63;4.88;;;29.10;99.90;;;;;;4861559;29;20741;-87
2023/06/20 12:31:40;;;;;;;5.57;4.47;;;29.10;99.90;;;;;;4884608;29;20053;-88
2023/06/20 12:34:06;;;;;;;8.57;4.57;;;29.20;99.90;;;;;;4886735;29;20109;-86
2023/06/20 12:36:33;;;;;;;5.40;3.47;;;29.20;99.90;;;;;;4901727;29;20055;-88
2023/06/20 12:39:00;;;;;;;7.93;3.80;;;29.20;99.90;;;;;;4886368;29;20842;-91
2023/06/20 12:41:33;;;;;;;7.97;3.40;;;29.30;99.90;;;;;;4860823;29;20064;-90
2023/06/20 12:43:59;;;;;;;9.85;3.60;;;29.40;99.90;;;;;;4875374;29;20500;-90